sensor_id;sensor_type;location;lat;lon;timestamp;temperature;humidity
16273;DHT22;8244;50.044;9.006;2022-08-01T00:02:54;23.50;92.50
16273;DHT22;8244;50.044;9.006;2022-08-01T00:07:56;23.40;92.60
16273;DHT22;8244;50.044;9.006;2022-08-01T00:12:59;23.30;92.80
16273;DHT22;8244;50.044;9.006;2022-08-01T00:18:01;23.20;93.20
16273;DHT22;8244;50.044;9.006;2022-08-01T00:23:02;23.10;93.80
16273;DHT22;8244;50.044;9.006;2022-08-01T00:28:06;23.00;93.90
16273;DHT22;8244;50.044;9.006;2022-08-01T00:33:09;22.90;94.70
16273;DHT22;8244;50.044;9.006;2022-08-01T00:38:10;22.70;94.80
16273;DHT22;8244;50.044;9.006;2022-08-01T00:43:13;22.70;95.60
16273;DHT22;8244;50.044;9.006;2022-08-01T00:48:15;22.60;96.20
16273;DHT22;8244;50.044;9.006;2022-08-01T00:53:17;22.60;96.60
16273;DHT22;8244;50.044;9.006;2022-08-01T00:58:20;22.60;97.30
16273;DHT22;8244;50.044;9.006;2022-08-01T01:03:22;22.50;97.60
16273;DHT22;8244;50.044;9.006;2022-08-01T01:08:32;22.50;98.10
16273;DHT22;8244;50.044;9.006;2022-08-01T01:13:42;22.50;98.70
16273;DHT22;8244;50.044;9.006;2022-08-01T01:18:47;22.40;98.80
16273;DHT22;8244;50.044;9.006;2022-08-01T01:24:00;22.30;99.90
16273;DHT22;8244;50.044;9.006;2022-08-01T01:29:11;22.30;99.90
16273;DHT22;8244;50.044;9.006;2022-08-01T01:34:18;22.20;99.90
16273;DHT22;8244;50.044;9.006;2022-08-01T01:39:21;22.10;99.90
16273;DHT22;8244;50.044;9.006;2022-08-01T01:44:27;22.10;99.90
16273;DHT22;8244;50.044;9.006;2022-08-01T01:49:30;22.00;99.90
16273;DHT22;8244;50.044;9.006;2022-08-01T01:54:36;22.00;99.90
16273;DHT22;8244;50.044;9.006;2022-08-01T01:59:39;21.90;99.90
16273;DHT22;8244;50.044;9.006;2022-08-01T02:04:44;22.00;99.90
16273;DHT22;8244;50.044;9.006;2022-08-01T02:09:47;22.00;99.90
16273;DHT22;8244;50.044;9.006;2022-08-01T02:14:53;22.00;99.90
16273;DHT22;8244;50.044;9.006;2022-08-01T02:19:55;22.00;99.90
16273;DHT22;8244;50.044;9.006;2022-08-01T02:25:00;22.00;99.90
16273;DHT22;8244;50.044;9.006;2022-08-01T02:30:07;22.00;99.90
16273;DHT22;8244;50.044;9.006;2022-08-01T02:35:13;21.90;99.90
16273;DHT22;8244;50.044;9.006;2022-08-01T02:40:16;21.90;99.90
16273;DHT22;8244;50.044;9.006;2022-08-01T02:45:24;21.90;99.90
16273;DHT22;8244;50.044;9.006;2022-08-01T02:50:26;21.90;99.90
16273;DHT22;8244;50.044;9.006;2022-08-01T02:55:30;21.90;99.90
16273;DHT22;8244;50.044;9.006;2022-08-01T03:00:34;21.80;99.90
16273;DHT22;8244;50.044;9.006;2022-08-01T03:05:37;21.80;99.90
16273;DHT22;8244;50.044;9.006;2022-08-01T03:10:42;21.80;99.90
16273;DHT22;8244;50.044;9.006;2022-08-01T03:15:47;21.80;99.90
16273;DHT22;8244;50.044;9.006;2022-08-01T03:20:49;21.80;99.90
16273;DHT22;8244;50.044;9.006;2022-08-01T03:25:52;21.80;99.90
16273;DHT22;8244;50.044;9.006;2022-08-01T03:30:56;21.80;99.90
16273;DHT22;8244;50.044;9.006;2022-08-01T03:36:00;21.80;99.90
16273;DHT22;8244;50.044;9.006;2022-08-01T03:41:09;21.80;99.90
16273;DHT22;8244;50.044;9.006;2022-08-01T03:46:18;21.80;99.90
16273;DHT22;8244;50.044;9.006;2022-08-01T03:51:21;21.80;99.90
16273;DHT22;8244;50.044;9.006;2022-08-01T03:56:24;21.80;99.90
16273;DHT22;8244;50.044;9.006;2022-08-01T04:01:28;21.80;99.90
16273;DHT22;8244;50.044;9.006;2022-08-01T04:06:32;21.80;99.90
16273;DHT22;8244;50.044;9.006;2022-08-01T04:11:34;21.80;99.90
16273;DHT22;8244;50.044;9.006;2022-08-01T04:16:37;21.80;99.90
16273;DHT22;8244;50.044;9.006;2022-08-01T04:21:38;21.80;99.90
16273;DHT22;8244;50.044;9.006;2022-08-01T04:26:41;21.80;99.90
16273;DHT22;8244;50.044;9.006;2022-08-01T04:31:47;21.80;99.90
16273;DHT22;8244;50.044;9.006;2022-08-01T04:36:52;21.80;99.90
16273;DHT22;8244;50.044;9.006;2022-08-01T04:41:56;21.80;99.90
16273;DHT22;8244;50.044;9.006;2022-08-01T04:47:00;21.80;99.90
16273;DHT22;8244;50.044;9.006;2022-08-01T04:52:04;21.80;99.90
16273;DHT22;8244;50.044;9.006;2022-08-01T04:57:07;21.90;99.90
16273;DHT22;8244;50.044;9.006;2022-08-01T05:02:11;21.90;99.90
16273;DHT22;8244;50.044;9.006;2022-08-01T05:07:13;22.00;99.90
16273;DHT22;8244;50.044;9.006;2022-08-01T05:12:16;22.30;99.90
16273;DHT22;8244;50.044;9.006;2022-08-01T05:17:19;22.90;99.90
16273;DHT22;8244;50.044;9.006;2022-08-01T05:22:21;23.70;99.90
16273;DHT22;8244;50.044;9.006;2022-08-01T05:27:26;24.70;99.90
16273;DHT22;8244;50.044;9.006;2022-08-01T05:32:29;25.60;99.90
16273;DHT22;8244;50.044;9.006;2022-08-01T05:37:32;26.30;99.90
16273;DHT22;8244;50.044;9.006;2022-08-01T05:42:34;26.90;99.70
16273;DHT22;8244;50.044;9.006;2022-08-01T05:47:37;27.10;97.50
16273;DHT22;8244;50.044;9.006;2022-08-01T05:52:38;27.00;97.00
16273;DHT22;8244;50.044;9.006;2022-08-01T05:57:40;26.90;96.90
16273;DHT22;8244;50.044;9.006;2022-08-01T06:02:43;26.60;96.50
16273;DHT22;8244;50.044;9.006;2022-08-01T06:07:45;26.40;97.10
16273;DHT22;8244;50.044;9.006;2022-08-01T06:12:46;26.20;97.00
16273;DHT22;8244;50.044;9.006;2022-08-01T06:17:49;26.10;97.10
16273;DHT22;8244;50.044;9.006;2022-08-01T06:22:51;25.90;97.30
16273;DHT22;8244;50.044;9.006;2022-08-01T06:27:53;25.60;97.80
16273;DHT22;8244;50.044;9.006;2022-08-01T06:32:56;25.40;98.20
16273;DHT22;8244;50.044;9.006;2022-08-01T06:37:59;25.30;98.40
16273;DHT22;8244;50.044;9.006;2022-08-01T06:43:00;25.10;98.50
16273;DHT22;8244;50.044;9.006;2022-08-01T06:48:04;24.90;99.90
16273;DHT22;8244;50.044;9.006;2022-08-01T06:53:06;24.60;99.90
16273;DHT22;8244;50.044;9.006;2022-08-01T06:58:07;24.50;99.90
16273;DHT22;8244;50.044;9.006;2022-08-01T07:03:10;24.40;99.90
16273;DHT22;8244;50.044;9.006;2022-08-01T07:08:12;24.40;99.90
16273;DHT22;8244;50.044;9.006;2022-08-01T07:13:14;24.40;99.90
16273;DHT22;8244;50.044;9.006;2022-08-01T07:18:22;24.40;99.90
16273;DHT22;8244;50.044;9.006;2022-08-01T07:23:24;24.50;99.90
16273;DHT22;8244;50.044;9.006;2022-08-01T07:28:25;24.50;99.90
16273;DHT22;8244;50.044;9.006;2022-08-01T07:33:28;24.50;99.90
16273;DHT22;8244;50.044;9.006;2022-08-01T07:38:30;24.50;99.90
16273;DHT22;8244;50.044;9.006;2022-08-01T07:43:32;24.60;99.90
16273;DHT22;8244;50.044;9.006;2022-08-01T07:48:37;24.70;99.90
16273;DHT22;8244;50.044;9.006;2022-08-01T07:53:39;24.80;99.90
16273;DHT22;8244;50.044;9.006;2022-08-01T07:58:41;25.00;99.90
16273;DHT22;8244;50.044;9.006;2022-08-01T08:03:44;25.10;99.90
16273;DHT22;8244;50.044;9.006;2022-08-01T08:08:45;25.50;99.90
16273;DHT22;8244;50.044;9.006;2022-08-01T08:13:47;25.80;99.90
16273;DHT22;8244;50.044;9.006;2022-08-01T08:18:50;26.30;99.90
16273;DHT22;8244;50.044;9.006;2022-08-01T08:23:52;26.90;98.10
16273;DHT22;8244;50.044;9.006;2022-08-01T08:29:11;27.00;97.20
16273;DHT22;8244;50.044;9.006;2022-08-01T08:34:14;27.40;97.10
16273;DHT22;8244;50.044;9.006;2022-08-01T08:39:17;27.90;96.20
16273;DHT22;8244;50.044;9.006;2022-08-01T08:44:19;28.40;95.20
16273;DHT22;8244;50.044;9.006;2022-08-01T08:49:24;28.90;92.50
16273;DHT22;8244;50.044;9.006;2022-08-01T08:54:27;29.30;91.10
16273;DHT22;8244;50.044;9.006;2022-08-01T08:59:29;30.10;90.70
16273;DHT22;8244;50.044;9.006;2022-08-01T09:04:33;30.60;89.50
16273;DHT22;8244;50.044;9.006;2022-08-01T09:09:35;30.90;86.60
16273;DHT22;8244;50.044;9.006;2022-08-01T09:14:44;31.10;85.90
16273;DHT22;8244;50.044;9.006;2022-08-01T09:19:49;31.10;84.40
16273;DHT22;8244;50.044;9.006;2022-08-01T09:25:00;30.80;82.80
16273;DHT22;8244;50.044;9.006;2022-08-01T09:30:11;30.60;84.10
16273;DHT22;8244;50.044;9.006;2022-08-01T09:35:25;30.60;84.60
16273;DHT22;8244;50.044;9.006;2022-08-01T09:40:44;30.90;84.20
16273;DHT22;8244;50.044;9.006;2022-08-01T09:45:46;31.20;82.90
16273;DHT22;8244;50.044;9.006;2022-08-01T09:50:51;31.60;81.70
16273;DHT22;8244;50.044;9.006;2022-08-01T09:55:53;31.90;80.50
16273;DHT22;8244;50.044;9.006;2022-08-01T10:00:59;32.70;78.90
16273;DHT22;8244;50.044;9.006;2022-08-01T10:06:19;33.40;76.20
16273;DHT22;8244;50.044;9.006;2022-08-01T10:11:21;33.70;74.90
16273;DHT22;8244;50.044;9.006;2022-08-01T10:16:24;34.10;74.50
16273;DHT22;8244;50.044;9.006;2022-08-01T10:21:30;34.60;71.70
16273;DHT22;8244;50.044;9.006;2022-08-01T10:26:33;35.40;66.00
16273;DHT22;8244;50.044;9.006;2022-08-01T10:31:36;35.90;67.70
16273;DHT22;8244;50.044;9.006;2022-08-01T10:36:40;36.20;65.20
16273;DHT22;8244;50.044;9.006;2022-08-01T10:41:42;36.10;64.70
16273;DHT22;8244;50.044;9.006;2022-08-01T10:46:48;36.10;64.80
16273;DHT22;8244;50.044;9.006;2022-08-01T10:51:54;36.00;64.70
16273;DHT22;8244;50.044;9.006;2022-08-01T10:56:59;35.50;64.70
16273;DHT22;8244;50.044;9.006;2022-08-01T11:02:03;35.00;65.20
16273;DHT22;8244;50.044;9.006;2022-08-01T11:07:07;34.50;67.10
16273;DHT22;8244;50.044;9.006;2022-08-01T11:12:15;34.00;66.00
16273;DHT22;8244;50.044;9.006;2022-08-01T11:17:34;33.90;67.00
16273;DHT22;8244;50.044;9.006;2022-08-01T11:28:29;33.60;68.80
16273;DHT22;8244;50.044;9.006;2022-08-01T11:33:50;33.90;67.80
16273;DHT22;8244;50.044;9.006;2022-08-01T11:39:15;34.10;67.20
16273;DHT22;8244;50.044;9.006;2022-08-01T11:44:21;33.90;66.10
16273;DHT22;8244;50.044;9.006;2022-08-01T11:49:29;34.10;65.10
16273;DHT22;8244;50.044;9.006;2022-08-01T11:54:34;34.90;64.90
16273;DHT22;8244;50.044;9.006;2022-08-01T11:59:40;35.00;61.60
16273;DHT22;8244;50.044;9.006;2022-08-01T12:04:48;35.60;62.80
16273;DHT22;8244;50.044;9.006;2022-08-01T12:09:57;36.50;59.90
16273;DHT22;8244;50.044;9.006;2022-08-01T12:15:03;37.30;58.90
16273;DHT22;8244;50.044;9.006;2022-08-01T12:20:07;38.10;57.90
16273;DHT22;8244;50.044;9.006;2022-08-01T12:25:11;38.70;57.10
16273;DHT22;8244;50.044;9.006;2022-08-01T12:30:15;39.00;55.80
16273;DHT22;8244;50.044;9.006;2022-08-01T12:35:19;39.50;54.20
16273;DHT22;8244;50.044;9.006;2022-08-01T12:40:25;40.10;54.90
16273;DHT22;8244;50.044;9.006;2022-08-01T12:45:32;40.90;53.40
16273;DHT22;8244;50.044;9.006;2022-08-01T12:50:37;41.20;51.70
16273;DHT22;8244;50.044;9.006;2022-08-01T12:55:44;40.40;51.10
16273;DHT22;8244;50.044;9.006;2022-08-01T13:00:48;39.80;52.60
16273;DHT22;8244;50.044;9.006;2022-08-01T13:05:53;40.30;52.50
16273;DHT22;8244;50.044;9.006;2022-08-01T13:11:00;40.40;52.70
16273;DHT22;8244;50.044;9.006;2022-08-01T13:16:05;40.50;51.10
16273;DHT22;8244;50.044;9.006;2022-08-01T13:21:09;40.20;52.20
16273;DHT22;8244;50.044;9.006;2022-08-01T13:26:11;39.90;52.10
16273;DHT22;8244;50.044;9.006;2022-08-01T13:31:14;39.10;52.00
16273;DHT22;8244;50.044;9.006;2022-08-01T13:36:15;38.70;54.40
16273;DHT22;8244;50.044;9.006;2022-08-01T13:41:17;38.40;54.30
16273;DHT22;8244;50.044;9.006;2022-08-01T13:46:20;38.20;54.80
16273;DHT22;8244;50.044;9.006;2022-08-01T13:51:22;37.90;54.10
16273;DHT22;8244;50.044;9.006;2022-08-01T13:56:24;37.50;54.30
16273;DHT22;8244;50.044;9.006;2022-08-01T14:01:29;37.30;56.50
16273;DHT22;8244;50.044;9.006;2022-08-01T14:06:31;37.20;56.70
16273;DHT22;8244;50.044;9.006;2022-08-01T14:11:33;37.40;55.70
16273;DHT22;8244;50.044;9.006;2022-08-01T14:16:36;37.40;54.50
16273;DHT22;8244;50.044;9.006;2022-08-01T14:21:38;37.40;54.50
16273;DHT22;8244;50.044;9.006;2022-08-01T14:26:40;37.20;55.90
16273;DHT22;8244;50.044;9.006;2022-08-01T14:31:43;37.10;55.10
16273;DHT22;8244;50.044;9.006;2022-08-01T14:36:44;36.70;57.30
16273;DHT22;8244;50.044;9.006;2022-08-01T14:41:46;36.40;55.80
16273;DHT22;8244;50.044;9.006;2022-08-01T14:46:49;35.80;56.90
16273;DHT22;8244;50.044;9.006;2022-08-01T14:51:51;35.30;57.20
16273;DHT22;8244;50.044;9.006;2022-08-01T14:56:52;35.00;58.40
16273;DHT22;8244;50.044;9.006;2022-08-01T15:01:55;35.00;58.40
16273;DHT22;8244;50.044;9.006;2022-08-01T15:06:57;34.80;57.90
16273;DHT22;8244;50.044;9.006;2022-08-01T15:11:59;34.50;59.00
16273;DHT22;8244;50.044;9.006;2022-08-01T15:17:02;34.50;59.60
16273;DHT22;8244;50.044;9.006;2022-08-01T15:22:03;34.50;59.10
16273;DHT22;8244;50.044;9.006;2022-08-01T15:27:05;34.30;59.80
16273;DHT22;8244;50.044;9.006;2022-08-01T15:32:09;34.30;59.70
16273;DHT22;8244;50.044;9.006;2022-08-01T15:37:11;34.30;59.90
16273;DHT22;8244;50.044;9.006;2022-08-01T15:42:15;34.50;58.90
16273;DHT22;8244;50.044;9.006;2022-08-01T15:47:18;34.60;60.10
16273;DHT22;8244;50.044;9.006;2022-08-01T15:52:20;34.60;58.40
16273;DHT22;8244;50.044;9.006;2022-08-01T15:57:21;34.20;59.80
16273;DHT22;8244;50.044;9.006;2022-08-01T16:02:24;33.80;59.90
16273;DHT22;8244;50.044;9.006;2022-08-01T16:07:26;33.70;60.90
16273;DHT22;8244;50.044;9.006;2022-08-01T16:12:28;33.50;60.90
16273;DHT22;8244;50.044;9.006;2022-08-01T16:17:31;33.40;61.30
16273;DHT22;8244;50.044;9.006;2022-08-01T16:22:33;33.20;62.40
16273;DHT22;8244;50.044;9.006;2022-08-01T16:27:36;33.10;62.00
16273;DHT22;8244;50.044;9.006;2022-08-01T16:32:39;32.90;61.80
16273;DHT22;8244;50.044;9.006;2022-08-01T16:37:40;32.70;63.10
16273;DHT22;8244;50.044;9.006;2022-08-01T16:42:42;32.40;63.10
16273;DHT22;8244;50.044;9.006;2022-08-01T16:47:45;32.00;63.90
16273;DHT22;8244;50.044;9.006;2022-08-01T16:52:47;31.80;64.30
16273;DHT22;8244;50.044;9.006;2022-08-01T16:57:49;31.50;64.80
16273;DHT22;8244;50.044;9.006;2022-08-01T17:02:52;31.20;65.50
16273;DHT22;8244;50.044;9.006;2022-08-01T17:07:54;31.00;66.10
16273;DHT22;8244;50.044;9.006;2022-08-01T17:12:55;30.60;68.40
16273;DHT22;8244;50.044;9.006;2022-08-01T17:17:59;30.20;70.00
16273;DHT22;8244;50.044;9.006;2022-08-01T17:23:00;30.10;70.70
16273;DHT22;8244;50.044;9.006;2022-08-01T17:28:03;29.80;71.60
16273;DHT22;8244;50.044;9.006;2022-08-01T17:33:06;29.70;72.20
16273;DHT22;8244;50.044;9.006;2022-08-01T17:38:08;29.50;72.70
16273;DHT22;8244;50.044;9.006;2022-08-01T17:43:10;29.30;73.10
16273;DHT22;8244;50.044;9.006;2022-08-01T17:48:13;29.30;73.20
16273;DHT22;8244;50.044;9.006;2022-08-01T17:53:16;29.10;73.80
16273;DHT22;8244;50.044;9.006;2022-08-01T17:58:18;29.10;74.20
16273;DHT22;8244;50.044;9.006;2022-08-01T18:03:21;29.20;73.90
16273;DHT22;8244;50.044;9.006;2022-08-01T18:08:22;29.20;73.50
16273;DHT22;8244;50.044;9.006;2022-08-01T18:13:26;29.20;73.30
16273;DHT22;8244;50.044;9.006;2022-08-01T18:18:29;29.10;73.20
16273;DHT22;8244;50.044;9.006;2022-08-01T18:23:31;29.10;73.70
16273;DHT22;8244;50.044;9.006;2022-08-01T18:28:34;29.00;73.80
16273;DHT22;8244;50.044;9.006;2022-08-01T18:33:39;28.80;72.70
16273;DHT22;8244;50.044;9.006;2022-08-01T18:38:41;28.70;73.00
16273;DHT22;8244;50.044;9.006;2022-08-01T18:43:42;28.50;72.10
16273;DHT22;8244;50.044;9.006;2022-08-01T18:48:45;28.30;72.20
16273;DHT22;8244;50.044;9.006;2022-08-01T18:53:47;28.10;72.60
16273;DHT22;8244;50.044;9.006;2022-08-01T18:58:52;27.80;73.30
16273;DHT22;8244;50.044;9.006;2022-08-01T19:03:55;27.60;74.00
16273;DHT22;8244;50.044;9.006;2022-08-01T19:08:57;27.40;74.70
16273;DHT22;8244;50.044;9.006;2022-08-01T19:14:00;27.20;75.30
16273;DHT22;8244;50.044;9.006;2022-08-01T19:19:05;27.00;76.10
16273;DHT22;8244;50.044;9.006;2022-08-01T19:24:08;26.70;76.30
16273;DHT22;8244;50.044;9.006;2022-08-01T19:29:22;26.60;77.20
16273;DHT22;8244;50.044;9.006;2022-08-01T19:34:25;26.50;77.50
16273;DHT22;8244;50.044;9.006;2022-08-01T19:39:27;26.30;78.20
16273;DHT22;8244;50.044;9.006;2022-08-01T19:44:30;26.10;78.40
16273;DHT22;8244;50.044;9.006;2022-08-01T19:49:33;26.00;78.90
16273;DHT22;8244;50.044;9.006;2022-08-01T19:54:36;25.80;79.50
16273;DHT22;8244;50.044;9.006;2022-08-01T19:59:39;25.70;79.90
16273;DHT22;8244;50.044;9.006;2022-08-01T20:04:42;25.60;80.70
16273;DHT22;8244;50.044;9.006;2022-08-01T20:09:46;25.50;80.80
16273;DHT22;8244;50.044;9.006;2022-08-01T20:14:50;25.30;81.20
16273;DHT22;8244;50.044;9.006;2022-08-01T20:19:55;25.20;81.70
16273;DHT22;8244;50.044;9.006;2022-08-01T20:24:58;25.10;82.10
16273;DHT22;8244;50.044;9.006;2022-08-01T20:30:00;25.00;82.90
16273;DHT22;8244;50.044;9.006;2022-08-01T20:35:04;24.80;84.00
16273;DHT22;8244;50.044;9.006;2022-08-01T20:40:09;24.70;85.10
16273;DHT22;8244;50.044;9.006;2022-08-01T20:45:12;24.70;85.50
16273;DHT22;8244;50.044;9.006;2022-08-01T20:50:17;24.60;86.00
16273;DHT22;8244;50.044;9.006;2022-08-01T20:55:44;24.40;87.30
16273;DHT22;8244;50.044;9.006;2022-08-01T21:00:48;24.30;87.70
16273;DHT22;8244;50.044;9.006;2022-08-01T21:05:59;24.20;88.50
16273;DHT22;8244;50.044;9.006;2022-08-01T21:11:04;24.20;89.10
16273;DHT22;8244;50.044;9.006;2022-08-01T21:16:08;24.10;90.10
16273;DHT22;8244;50.044;9.006;2022-08-01T21:21:15;24.00;90.40
16273;DHT22;8244;50.044;9.006;2022-08-01T21:26:18;23.90;90.80
16273;DHT22;8244;50.044;9.006;2022-08-01T21:31:21;23.90;91.00
16273;DHT22;8244;50.044;9.006;2022-08-01T21:36:25;23.80;91.30
16273;DHT22;8244;50.044;9.006;2022-08-01T21:41:28;23.70;91.60
16273;DHT22;8244;50.044;9.006;2022-08-01T21:46:32;23.70;91.90
16273;DHT22;8244;50.044;9.006;2022-08-01T21:51:41;23.60;92.10
16273;DHT22;8244;50.044;9.006;2022-08-01T21:56:50;23.50;92.50
16273;DHT22;8244;50.044;9.006;2022-08-01T22:02:00;23.40;92.70
16273;DHT22;8244;50.044;9.006;2022-08-01T22:07:05;23.30;93.10
16273;DHT22;8244;50.044;9.006;2022-08-01T22:12:09;23.10;93.40
16273;DHT22;8244;50.044;9.006;2022-08-01T22:17:15;23.10;93.70
16273;DHT22;8244;50.044;9.006;2022-08-01T22:22:20;23.00;93.80
16273;DHT22;8244;50.044;9.006;2022-08-01T22:27:22;22.90;93.90
16273;DHT22;8244;50.044;9.006;2022-08-01T22:32:29;22.80;94.40
16273;DHT22;8244;50.044;9.006;2022-08-01T22:37:32;22.70;94.60
16273;DHT22;8244;50.044;9.006;2022-08-01T22:42:38;22.60;95.30
16273;DHT22;8244;50.044;9.006;2022-08-01T22:47:49;22.40;95.80
16273;DHT22;8244;50.044;9.006;2022-08-01T22:53:05;22.30;96.30
16273;DHT22;8244;50.044;9.006;2022-08-01T22:58:10;22.20;97.00
16273;DHT22;8244;50.044;9.006;2022-08-01T23:03:19;22.10;97.40
16273;DHT22;8244;50.044;9.006;2022-08-01T23:08:25;21.90;98.90
16273;DHT22;8244;50.044;9.006;2022-08-01T23:13:28;21.80;99.30
16273;DHT22;8244;50.044;9.006;2022-08-01T23:18:30;21.70;99.80
16273;DHT22;8244;50.044;9.006;2022-08-01T23:23:33;21.70;99.90
16273;DHT22;8244;50.044;9.006;2022-08-01T23:28:35;21.60;99.90
16273;DHT22;8244;50.044;9.006;2022-08-01T23:33:39;21.50;99.90
16273;DHT22;8244;50.044;9.006;2022-08-01T23:38:42;21.40;99.90
16273;DHT22;8244;50.044;9.006;2022-08-01T23:43:44;21.30;99.90
16273;DHT22;8244;50.044;9.006;2022-08-01T23:48:46;21.30;99.90
16273;DHT22;8244;50.044;9.006;2022-08-01T23:53:49;21.20;99.90
16273;DHT22;8244;50.044;9.006;2022-08-01T23:58:51;21.20;99.90
